createdAt,value
2019-04-06T00:02:36.390Z,43.80
2019-04-06T00:07:39.839Z,43.82
2019-04-06T00:12:43.303Z,43.88
2019-04-06T00:17:46.779Z,43.85
2019-04-06T00:22:50.235Z,43.90
2019-04-06T00:27:53.697Z,43.86
2019-04-06T00:32:58.798Z,43.88
2019-04-06T00:38:02.257Z,43.92
2019-04-06T00:43:05.813Z,43.88
2019-04-06T00:48:09.262Z,43.92
2019-04-06T00:53:12.716Z,43.93
2019-04-06T00:58:16.170Z,43.89
2019-04-06T01:03:19.632Z,43.91
2019-04-06T01:08:23.093Z,43.97
2019-04-06T01:13:26.561Z,43.96
2019-04-06T01:18:30.029Z,43.97
2019-04-06T01:23:33.488Z,43.99
2019-04-06T01:28:36.949Z,43.95
2019-04-06T01:33:40.429Z,43.99
2019-04-06T01:38:43.889Z,43.97
2019-04-06T01:43:47.350Z,43.97
2019-04-06T01:48:50.854Z,44.04
2019-04-06T01:53:54.340Z,43.99
2019-04-06T01:58:57.792Z,44.02
2019-04-06T02:04:01.377Z,44.01
2019-04-06T02:09:06.130Z,44.02
2019-04-06T02:14:09.589Z,43.99
2019-04-06T02:19:13.091Z,44.01
2019-04-06T02:24:16.620Z,44.03
2019-04-06T02:29:20.035Z,44.00
2019-04-06T02:34:34.261Z,44.01
2019-04-06T02:39:39.379Z,44.02
2019-04-06T02:44:42.850Z,44.03
2019-04-06T02:49:46.309Z,44.01
2019-04-06T02:54:49.769Z,44.03
2019-04-06T02:59:53.351Z,44.03
2019-04-06T03:04:56.785Z,44.09
2019-04-06T03:10:00.314Z,44.09
2019-04-06T03:15:04.009Z,44.08
2019-04-06T03:20:07.905Z,44.11
2019-04-06T03:25:11.704Z,44.09
2019-04-06T03:30:15.828Z,44.12
2019-04-06T03:35:19.341Z,44.13
2019-04-06T03:40:22.797Z,44.12
2019-04-06T03:45:26.329Z,44.13
2019-04-06T03:50:29.915Z,44.18
2019-04-06T03:55:33.547Z,44.19
2019-04-06T04:00:37.084Z,44.19
2019-04-06T04:05:40.523Z,44.22
2019-04-06T04:10:47.025Z,44.20
2019-04-06T04:15:49.324Z,44.25
2019-04-06T04:20:52.786Z,44.30
2019-04-06T04:25:56.239Z,44.28
2019-04-06T04:30:59.765Z,44.32
2019-04-06T04:36:03.237Z,44.34
2019-04-06T04:41:06.687Z,44.38
2019-04-06T04:46:10.150Z,44.38
2019-04-06T04:51:13.601Z,44.44
2019-04-06T04:56:17.066Z,44.40
2019-04-06T05:01:20.655Z,44.43
2019-04-06T05:06:24.155Z,44.44
2019-04-06T05:11:27.642Z,44.46
2019-04-06T05:16:31.072Z,44.51
2019-04-06T05:21:34.536Z,44.51
2019-04-06T05:26:38.421Z,44.49
2019-04-06T05:31:41.947Z,44.52
2019-04-06T05:36:45.403Z,44.55
2019-04-06T05:41:50.520Z,44.61
2019-04-06T05:46:54.047Z,44.61
2019-04-06T05:51:57.509Z,44.67
2019-04-06T05:57:00.968Z,44.69
2019-04-06T06:02:04.876Z,44.71
2019-04-06T06:07:08.339Z,44.80
2019-04-06T06:12:12.972Z,44.79
2019-04-06T06:17:16.572Z,44.80
2019-04-06T06:22:20.162Z,44.75
2019-04-06T06:27:23.945Z,44.72
2019-04-06T06:32:27.448Z,44.69
2019-04-06T06:37:30.902Z,44.72
2019-04-06T06:42:34.359Z,44.74
2019-04-06T06:47:37.821Z,44.78
2019-04-06T06:52:41.280Z,44.78
2019-04-06T06:57:44.742Z,44.75
2019-04-06T07:02:48.202Z,43.20
2019-04-06T07:07:51.833Z,39.84
2019-04-06T07:12:55.309Z,38.63
2019-04-06T07:17:58.778Z,38.78
2019-04-06T07:23:02.242Z,39.62
2019-04-06T07:28:05.705Z,40.12
2019-04-06T07:33:09.164Z,40.42
2019-04-06T07:38:12.800Z,40.69
2019-04-06T07:43:16.365Z,40.88
2019-04-06T07:48:20.056Z,41.04
2019-04-06T07:53:23.561Z,41.19
2019-04-06T07:58:27.016Z,41.31
2019-04-06T08:03:30.844Z,41.39
2019-04-06T08:08:34.310Z,41.45
2019-04-06T08:13:37.770Z,41.85
2019-04-06T08:18:41.223Z,42.36
2019-04-06T08:23:44.707Z,42.62
2019-04-06T08:28:58.929Z,42.81
2019-04-06T08:33:53.361Z,42.82
2019-04-06T08:38:57.090Z,42.89
2019-04-06T08:44:00.548Z,42.89
2019-04-06T08:49:04.030Z,43.00
2019-04-06T08:54:07.657Z,43.06
2019-04-06T08:59:13.148Z,43.02
2019-04-06T09:04:16.588Z,43.16
2019-04-06T09:09:20.199Z,43.26
2019-04-06T09:14:23.659Z,43.17
2019-04-06T09:19:27.133Z,42.91
2019-04-06T09:24:30.610Z,43.05
2019-04-06T09:29:34.097Z,43.24
2019-04-06T09:34:37.690Z,43.27
2019-04-06T09:39:41.126Z,43.35
2019-04-06T09:44:49.179Z,43.36
2019-04-06T09:50:12.378Z,43.56
2019-04-06T09:55:26.358Z,43.34
2019-04-06T10:00:40.044Z,43.50
2019-04-06T10:06:01.195Z,43.56
2019-04-06T10:11:22.327Z,43.60
2019-04-06T10:16:39.592Z,43.34
2019-04-06T10:21:50.681Z,43.14
2019-04-06T10:26:58.460Z,42.98
2019-04-06T10:32:03.690Z,43.13
2019-04-06T10:37:25.030Z,42.92
2019-04-06T10:42:35.593Z,43.17
2019-04-06T10:47:43.392Z,43.29
2019-04-06T10:52:57.292Z,43.10
2019-04-06T10:58:17.541Z,43.00
2019-04-06T11:03:28.904Z,43.01
2019-04-06T11:08:49.045Z,42.93
2019-04-06T11:13:57.119Z,42.93
2019-04-06T11:19:08.004Z,43.17
2019-04-06T11:24:13.075Z,42.96
2019-04-06T11:29:18.177Z,42.73
2019-04-06T11:34:26.228Z,42.52
2019-04-06T11:39:47.273Z,41.98
2019-04-06T11:44:58.417Z,42.22
2019-04-06T11:50:12.818Z,42.34
2019-04-06T11:55:26.639Z,42.14
2019-04-06T12:00:34.672Z,42.17
2019-04-06T12:05:40.227Z,40.90
2019-04-06T12:10:45.415Z,40.58
2019-04-06T12:16:02.534Z,40.61
2019-04-06T12:21:07.867Z,40.17
2019-04-06T12:26:15.687Z,40.10
2019-04-06T12:31:20.804Z,40.03
2019-04-06T12:36:31.821Z,40.01
2019-04-06T12:41:53.211Z,39.92
2019-04-06T12:47:04.128Z,39.65
2019-04-06T12:52:09.308Z,39.65
2019-04-06T12:57:20.344Z,39.73
2019-04-06T13:02:34.657Z,39.72
2019-04-06T13:07:39.794Z,39.88
2019-04-06T13:12:59.935Z,39.09
2019-04-06T13:18:20.898Z,38.79
2019-04-06T13:23:42.470Z,39.37
2019-04-06T13:28:47.924Z,39.22
2019-04-06T13:34:09.831Z,39.07
2019-04-06T13:39:29.621Z,38.99
2019-04-06T13:44:34.816Z,38.60
2019-04-06T13:49:56.123Z,38.39
2019-04-06T13:55:07.009Z,38.97
2019-04-06T14:00:18.036Z,38.71
2019-04-06T14:05:39.357Z,38.42
2019-04-06T14:11:11.318Z,38.59
2019-04-06T14:16:18.983Z,38.33
2019-04-06T14:21:24.236Z,38.35
2019-04-06T14:26:35.188Z,38.13
2019-04-06T14:31:40.578Z,37.59
2019-04-06T14:36:46.021Z,38.04
2019-04-06T14:42:09.230Z,37.79
2019-04-06T14:47:29.569Z,37.76
2019-04-06T14:52:37.459Z,37.86
2019-04-06T14:57:59.454Z,37.70
2019-04-06T15:03:04.740Z,37.43
2019-04-06T15:08:15.466Z,36.79
2019-04-06T15:13:23.226Z,36.62
2019-04-06T15:18:28.763Z,35.96
2019-04-06T15:23:42.580Z,35.91
2019-04-06T15:28:56.827Z,35.86
2019-04-06T15:34:05.296Z,35.89
2019-04-06T15:39:10.448Z,35.84
2019-04-06T15:44:18.272Z,35.90
2019-04-06T15:49:29.318Z,35.65
2019-04-06T15:54:34.431Z,35.38
2019-04-06T15:59:39.684Z,35.30
2019-04-06T16:04:51.054Z,32.92
2019-04-06T16:09:56.156Z,33.24
2019-04-06T16:15:01.270Z,33.97
2019-04-06T16:20:09.200Z,34.37
2019-04-06T16:25:23.539Z,34.55
2019-04-06T16:30:31.380Z,34.71
2019-04-06T16:35:45.282Z,34.93
2019-04-06T16:40:59.129Z,35.84
2019-04-06T16:46:19.525Z,36.49
2019-04-06T16:51:24.622Z,37.20
2019-04-06T16:56:32.453Z,37.63
2019-04-06T17:01:37.559Z,37.99
2019-04-06T17:06:52.144Z,38.19
2019-04-06T17:12:06.275Z,38.29
2019-04-06T17:17:17.603Z,37.91
2019-04-06T17:22:25.567Z,37.86
2019-04-06T17:27:30.669Z,37.86
2019-04-06T17:32:37.905Z,37.92
2019-04-06T17:37:57.741Z,37.97
2019-04-06T17:43:05.495Z,38.09
2019-04-06T17:48:30.513Z,38.21
2019-04-06T17:53:38.654Z,38.33
2019-04-06T17:58:56.416Z,38.57
2019-04-06T18:04:01.548Z,38.84
2019-04-06T18:09:18.578Z,39.04
2019-04-06T18:14:22.384Z,39.09
2019-04-06T18:19:25.982Z,39.29
2019-04-06T18:24:29.518Z,39.43
2019-04-06T18:29:33.046Z,39.56
2019-04-06T18:34:36.597Z,39.60
2019-04-06T18:39:40.405Z,39.72
2019-04-06T18:44:44.349Z,39.82
2019-04-06T18:49:47.940Z,39.89
2019-04-06T18:54:51.835Z,39.95
2019-04-06T18:59:55.325Z,39.98
2019-04-06T19:04:58.785Z,40.03
2019-04-06T19:10:02.676Z,40.08
2019-04-06T19:15:08.196Z,40.12
2019-04-06T19:20:12.313Z,40.17
2019-04-06T19:25:15.970Z,40.20
2019-04-06T19:30:20.411Z,40.25
2019-04-06T19:35:23.897Z,40.28
2019-04-06T19:40:27.360Z,40.34
2019-04-06T19:45:30.826Z,40.39
2019-04-06T19:50:34.285Z,40.46
2019-04-06T19:55:38.223Z,40.47
2019-04-06T20:00:41.788Z,40.51
2019-04-06T20:05:45.511Z,40.55
2019-04-06T20:10:48.986Z,40.57
2019-04-06T20:15:52.454Z,40.61
2019-04-06T20:20:55.958Z,40.64
2019-04-06T20:25:59.368Z,40.69
2019-04-06T20:31:02.830Z,40.75
2019-04-06T20:36:06.288Z,40.83
2019-04-06T20:41:09.849Z,40.85
2019-04-06T20:46:13.282Z,40.93
2019-04-06T20:51:16.743Z,40.96
2019-04-06T20:56:20.762Z,41.04
2019-04-06T21:01:24.284Z,41.08
2019-04-06T21:06:28.094Z,41.10
2019-04-06T21:11:31.591Z,41.17
2019-04-06T21:16:35.053Z,41.21
2019-04-06T21:21:38.512Z,41.26
2019-04-06T21:26:41.969Z,41.31
2019-04-06T21:31:45.427Z,41.34
2019-04-06T21:36:49.532Z,41.37
2019-04-06T21:41:53.131Z,41.43
2019-04-06T21:46:57.415Z,41.43
2019-04-06T21:52:01.050Z,41.46
2019-04-06T21:57:05.072Z,41.52
2019-04-06T22:02:08.714Z,41.55
2019-04-06T22:07:12.200Z,41.58
2019-04-06T22:12:16.273Z,41.60
2019-04-06T22:17:19.816Z,41.61
2019-04-06T22:22:23.273Z,41.65
2019-04-06T22:27:26.761Z,41.69
2019-04-06T22:32:30.188Z,41.72
2019-04-06T22:37:34.112Z,41.75
2019-04-06T22:42:37.730Z,41.80
2019-04-06T22:47:41.506Z,41.82
2019-04-06T22:52:45.230Z,41.87
2019-04-06T22:57:48.945Z,41.87
2019-04-06T23:03:05.985Z,41.90
2019-04-06T23:08:09.438Z,41.91
2019-04-06T23:13:13.239Z,41.96
2019-04-06T23:18:16.884Z,41.97
2019-04-06T23:23:20.871Z,42.02
2019-04-06T23:28:24.435Z,42.17
2019-04-06T23:33:28.064Z,42.49
2019-04-06T23:38:31.622Z,42.62
2019-04-06T23:43:35.083Z,42.79
2019-04-06T23:48:39.127Z,42.86
2019-04-06T23:53:42.768Z,42.91
2019-04-06T23:58:47.057Z,42.95
